createdAt,value
2018-06-05T00:00:31.412Z,33.10
2018-06-05T00:01:31.602Z,33.70
2018-06-05T00:02:31.405Z,33.40
2018-06-05T00:03:31.392Z,33.70
2018-06-05T00:04:31.610Z,33.30
2018-06-05T00:05:31.424Z,35.90
2018-06-05T00:06:31.611Z,36.80
2018-06-05T00:07:31.414Z,41.30
2018-06-05T00:08:31.415Z,40.60
2018-06-05T00:09:31.625Z,39.60
2018-06-05T00:10:31.408Z,41.40
2018-06-05T00:11:31.429Z,39.50
2018-06-05T00:12:31.416Z,38.50
2018-06-05T00:13:31.628Z,39.60
2018-06-05T00:14:31.427Z,38.40
2018-06-05T00:15:31.425Z,39.90
2018-06-05T00:16:31.640Z,39.10
2018-06-05T00:17:31.440Z,39.70
2018-06-05T00:18:31.436Z,38.70
2018-06-05T00:19:31.426Z,40.00
2018-06-05T00:20:31.428Z,38.90
2018-06-05T00:21:31.470Z,40.60
2018-06-05T00:22:31.433Z,41.00
2018-06-05T00:23:31.434Z,42.10
2018-06-05T00:24:31.437Z,42.50
2018-06-05T00:25:31.670Z,43.70
2018-06-05T00:26:31.643Z,45.50
2018-06-05T00:27:31.443Z,43.30
2018-06-05T00:28:31.446Z,45.40
2018-06-05T00:29:31.450Z,45.40
2018-06-05T00:30:31.459Z,45.40
2018-06-05T00:31:31.451Z,44.80
2018-06-05T00:32:31.659Z,42.80
2018-06-05T00:33:31.657Z,44.60
2018-06-05T00:34:31.458Z,44.50
2018-06-05T00:35:31.671Z,44.30
2018-06-05T00:36:31.464Z,46.70
2018-06-05T00:37:31.481Z,48.00
2018-06-05T00:38:31.668Z,44.40
2018-06-05T00:39:31.469Z,45.30
2018-06-05T00:40:31.675Z,45.90
2018-06-05T00:41:31.484Z,46.60
2018-06-05T00:42:31.676Z,45.80
2018-06-05T00:43:31.490Z,44.70
2018-06-05T00:44:31.691Z,45.20
2018-06-05T00:45:31.693Z,44.00
2018-06-05T00:46:31.481Z,45.90
2018-06-05T00:47:31.692Z,43.80
2018-06-05T00:48:31.499Z,45.10
2018-06-05T00:49:31.490Z,44.90
2018-06-05T00:50:31.490Z,46.50
2018-06-05T00:51:31.507Z,44.50
2018-06-05T00:52:31.508Z,45.40
2018-06-05T00:53:31.498Z,44.50
2018-06-05T00:54:31.506Z,44.20
2018-06-05T00:55:31.502Z,45.10
2018-06-05T00:56:31.509Z,43.40
2018-06-05T00:57:31.713Z,44.40
2018-06-05T00:58:31.523Z,44.90
2018-06-05T00:59:31.733Z,44.20
2018-06-05T01:00:31.717Z,42.60
2018-06-05T01:01:31.518Z,43.60
2018-06-05T01:02:31.720Z,43.80
2018-06-05T01:03:31.722Z,44.90
2018-06-05T01:04:31.544Z,45.20
2018-06-05T01:05:31.742Z,44.00
2018-06-05T01:06:31.565Z,43.20
2018-06-05T01:07:31.757Z,45.40
2018-06-05T01:08:31.545Z,46.70
2018-06-05T01:09:31.548Z,46.60
2018-06-05T01:10:31.537Z,46.40
2018-06-05T01:11:31.556Z,46.90
2018-06-05T01:12:31.574Z,47.60
2018-06-05T01:13:31.764Z,48.60
2018-06-05T01:14:31.549Z,48.90
2018-06-05T01:15:31.553Z,47.30
2018-06-05T01:16:31.561Z,46.90
2018-06-05T01:17:31.584Z,47.70
2018-06-05T01:18:31.759Z,47.60
2018-06-05T01:19:31.762Z,49.30
2018-06-05T01:20:31.564Z,48.20
2018-06-05T01:21:31.778Z,49.90
2018-06-05T01:22:31.572Z,50.00
2018-06-05T01:23:31.782Z,49.00
2018-06-05T01:24:31.591Z,48.40
2018-06-05T01:25:31.603Z,46.80
2018-06-05T01:26:31.799Z,47.90
2018-06-05T01:27:31.790Z,49.60
2018-06-05T01:28:31.592Z,49.60
2018-06-05T01:29:31.787Z,49.90
2018-06-05T01:30:31.585Z,51.20
2018-06-05T01:31:31.603Z,49.10
2018-06-05T01:32:31.607Z,48.90
2018-06-05T01:33:31.611Z,49.40
2018-06-05T01:34:31.806Z,47.20
2018-06-05T01:35:31.801Z,49.60
2018-06-05T01:36:31.802Z,48.20
2018-06-05T01:37:31.601Z,48.50
2018-06-05T01:38:31.818Z,49.90
2018-06-05T01:39:31.621Z,47.90
2018-06-05T01:40:31.611Z,46.80
2018-06-05T01:41:31.610Z,49.20
2018-06-05T01:42:31.627Z,47.20
2018-06-05T01:43:31.620Z,48.20
2018-06-05T01:44:31.627Z,48.30
2018-06-05T01:45:31.620Z,48.10
2018-06-05T01:46:31.825Z,49.60
2018-06-05T01:47:31.653Z,49.50
2018-06-05T01:48:31.839Z,50.10
2018-06-05T01:49:31.632Z,50.10
2018-06-05T01:50:31.634Z,50.80
2018-06-05T01:51:31.837Z,50.20
2018-06-05T01:52:31.649Z,51.50
2018-06-05T01:53:31.653Z,50.30
2018-06-05T01:54:31.662Z,51.40
2018-06-05T01:55:31.645Z,50.80
2018-06-05T01:56:31.863Z,52.00
2018-06-05T01:57:31.649Z,50.70
2018-06-05T01:58:31.855Z,51.70
2018-06-05T01:59:31.655Z,53.60
2018-06-05T02:00:31.671Z,53.30
2018-06-05T02:01:31.672Z,53.80
2018-06-05T02:02:31.875Z,53.10
2018-06-05T02:03:31.665Z,54.30
2018-06-05T02:04:31.667Z,53.60
2018-06-05T02:05:31.671Z,54.70
2018-06-05T02:06:31.685Z,52.90
2018-06-05T02:07:31.678Z,56.10
2018-06-05T02:08:31.679Z,55.20
2018-06-05T02:09:31.884Z,53.10
2018-06-05T02:10:31.683Z,55.20
2018-06-05T02:11:31.686Z,54.50
2018-06-05T02:12:31.707Z,54.60
2018-06-05T02:13:31.921Z,54.70
2018-06-05T02:14:31.895Z,55.20
2018-06-05T02:15:31.705Z,54.60
2018-06-05T02:16:31.697Z,54.00
2018-06-05T02:17:31.713Z,56.10
2018-06-05T02:18:31.707Z,54.80
2018-06-05T02:19:31.907Z,52.70
2018-06-05T02:20:31.721Z,55.70
2018-06-05T02:21:31.710Z,55.20
2018-06-05T02:22:31.913Z,56.60
2018-06-05T02:23:31.917Z,55.70
2018-06-05T02:24:31.725Z,55.40
2018-06-05T02:25:31.724Z,54.80
2018-06-05T02:26:31.925Z,56.10
2018-06-05T02:27:31.739Z,56.00
2018-06-05T02:28:31.728Z,53.60
2018-06-05T02:29:31.731Z,55.60
2018-06-05T02:30:31.753Z,55.50
2018-06-05T02:31:31.759Z,54.10
2018-06-05T02:32:31.749Z,56.10
2018-06-05T02:33:31.751Z,55.00
2018-06-05T02:34:31.997Z,57.10
2018-06-05T02:35:31.961Z,57.20
2018-06-05T02:36:31.951Z,55.60
2018-06-05T02:37:31.749Z,56.00
2018-06-05T02:38:31.753Z,56.40
2018-06-05T02:39:31.765Z,55.50
2018-06-05T02:40:31.771Z,55.90
2018-06-05T02:41:31.974Z,55.20
2018-06-05T02:42:31.989Z,55.90
2018-06-05T02:43:31.764Z,55.60
2018-06-05T02:44:31.782Z,53.90
2018-06-05T02:45:31.986Z,56.10
2018-06-05T02:46:31.772Z,54.10
2018-06-05T02:47:31.784Z,57.40
2018-06-05T02:48:31.775Z,54.30
2018-06-05T02:49:31.990Z,57.10
2018-06-05T02:50:31.788Z,54.60
2018-06-05T02:51:31.994Z,55.70
2018-06-05T02:52:31.801Z,55.80
2018-06-05T02:53:31.994Z,55.00
2018-06-05T02:54:31.788Z,55.00
2018-06-05T02:55:31.791Z,58.40
2018-06-05T02:56:31.792Z,57.60
2018-06-05T02:57:31.807Z,56.90
2018-06-05T02:58:31.798Z,57.80
2018-06-05T02:59:32.016Z,59.10
2018-06-05T03:00:31.821Z,59.00
2018-06-05T03:01:32.025Z,56.60
2018-06-05T03:02:31.818Z,57.40
2018-06-05T03:03:32.023Z,58.40
2018-06-05T03:04:31.825Z,58.70
2018-06-05T03:05:31.815Z,56.20
2018-06-05T03:06:31.832Z,57.10
2018-06-05T03:07:31.821Z,56.10
2018-06-05T03:08:31.832Z,56.00
2018-06-05T03:09:31.844Z,57.30
2018-06-05T03:10:31.836Z,56.40
2018-06-05T03:11:31.828Z,58.40
2018-06-05T03:12:31.847Z,57.70
2018-06-05T03:13:31.847Z,57.40
2018-06-05T03:14:31.858Z,55.90
2018-06-05T03:15:31.847Z,55.80
2018-06-05T03:16:32.046Z,55.80
2018-06-05T03:17:31.841Z,56.60
2018-06-05T03:18:31.844Z,57.70
2018-06-05T03:19:31.851Z,56.90
2018-06-05T03:20:31.861Z,56.80
2018-06-05T03:21:31.852Z,56.10
2018-06-05T03:22:32.068Z,56.30
2018-06-05T03:23:32.069Z,57.60
2018-06-05T03:24:31.871Z,58.10
2018-06-05T03:25:32.074Z,58.60
2018-06-05T03:26:32.064Z,56.50
2018-06-05T03:27:31.862Z,54.40
2018-06-05T03:28:31.870Z,54.20
2018-06-05T03:29:31.869Z,53.50
2018-06-05T03:30:32.090Z,53.60
2018-06-05T03:31:32.084Z,51.90
2018-06-05T03:32:31.885Z,51.20
2018-06-05T03:33:31.891Z,50.90
2018-06-05T03:34:31.902Z,48.90
2018-06-05T03:35:31.894Z,49.60
2018-06-05T03:36:31.887Z,49.60
2018-06-05T03:37:31.909Z,48.00
2018-06-05T03:38:31.921Z,48.30
2018-06-05T03:39:31.907Z,49.00
2018-06-05T03:40:31.891Z,50.50
2018-06-05T03:41:31.894Z,48.60
2018-06-05T03:42:31.901Z,49.60
2018-06-05T03:43:32.121Z,49.00
2018-06-05T03:44:31.912Z,50.20
2018-06-05T03:45:31.906Z,49.90
2018-06-05T03:46:32.110Z,50.00
2018-06-05T03:47:31.938Z,50.60
2018-06-05T03:48:31.939Z,49.40
2018-06-05T03:49:31.938Z,50.80
2018-06-05T03:50:31.926Z,49.00
2018-06-05T03:51:32.132Z,48.70
2018-06-05T03:52:31.918Z,49.90
2018-06-05T03:53:32.206Z,50.10
2018-06-05T03:54:31.949Z,50.80
2018-06-05T03:55:32.143Z,50.30
2018-06-05T03:56:31.957Z,50.00
2018-06-05T03:57:31.932Z,50.50
2018-06-05T03:58:31.931Z,51.30
2018-06-05T03:59:31.964Z,50.50
2018-06-05T04:00:31.967Z,51.30
2018-06-05T04:01:31.937Z,50.60
2018-06-05T04:02:31.953Z,49.90
2018-06-05T04:03:31.942Z,51.60
2018-06-05T04:04:32.160Z,52.60
2018-06-05T04:05:31.958Z,51.10
2018-06-05T04:06:31.951Z,51.10
2018-06-05T04:07:31.948Z,52.30
2018-06-05T04:08:32.154Z,52.60
2018-06-05T04:09:32.168Z,51.40
2018-06-05T04:10:31.972Z,51.90
2018-06-05T04:11:31.958Z,53.90
2018-06-05T04:12:31.962Z,54.00
2018-06-05T04:13:31.962Z,53.30
2018-06-05T04:14:31.963Z,53.70
2018-06-05T04:15:31.967Z,53.80
2018-06-05T04:16:31.968Z,53.10
2018-06-05T04:17:31.972Z,52.90
2018-06-05T04:18:32.184Z,53.00
2018-06-05T04:19:31.972Z,52.40
2018-06-05T04:20:31.974Z,52.80
2018-06-05T04:21:31.980Z,53.40
2018-06-05T04:22:32.183Z,53.00
2018-06-05T04:23:31.979Z,54.00
2018-06-05T04:24:32.194Z,52.90
2018-06-05T04:25:31.986Z,53.40
2018-06-05T04:26:31.985Z,53.70
2018-06-05T04:27:32.022Z,52.90
2018-06-05T04:28:32.194Z,53.30
2018-06-05T04:29:32.199Z,53.70
2018-06-05T04:30:32.206Z,52.90
2018-06-05T04:31:31.995Z,53.50
2018-06-05T04:32:32.213Z,51.10
2018-06-05T04:33:32.018Z,52.20
2018-06-05T04:34:32.001Z,53.10
2018-06-05T04:35:32.014Z,54.00
2018-06-05T04:36:32.210Z,51.80
2018-06-05T04:37:32.023Z,53.70
2018-06-05T04:38:32.222Z,53.50
2018-06-05T04:39:32.213Z,53.10
2018-06-05T04:40:32.022Z,54.20
2018-06-05T04:41:32.231Z,52.80
2018-06-05T04:42:32.016Z,52.10
2018-06-05T04:43:32.018Z,53.00
2018-06-05T04:44:32.021Z,52.90
2018-06-05T04:45:32.021Z,53.20
2018-06-05T04:46:32.034Z,52.50
2018-06-05T04:47:32.024Z,54.70
2018-06-05T04:48:32.231Z,52.70
2018-06-05T04:49:32.028Z,52.90
2018-06-05T04:50:32.031Z,53.00
2018-06-05T04:51:32.043Z,52.70
2018-06-05T04:52:32.038Z,51.30
2018-06-05T04:53:32.039Z,53.20
2018-06-05T04:54:32.035Z,52.40
2018-06-05T04:55:32.068Z,54.10
2018-06-05T04:56:32.041Z,51.70
2018-06-05T04:57:32.070Z,52.60
2018-06-05T04:58:32.048Z,52.20
2018-06-05T04:59:32.047Z,51.80
2018-06-05T05:00:32.254Z,51.80
2018-06-05T05:01:32.064Z,51.70
2018-06-05T05:02:32.051Z,53.00
2018-06-05T05:03:32.057Z,52.60
2018-06-05T05:04:32.057Z,52.30
2018-06-05T05:05:32.263Z,50.80
2018-06-05T05:06:32.060Z,52.10
2018-06-05T05:07:32.073Z,52.90
2018-06-05T05:08:32.080Z,51.40
2018-06-05T05:09:32.066Z,53.80
2018-06-05T05:10:32.084Z,52.60
2018-06-05T05:11:32.083Z,53.20
2018-06-05T05:12:32.071Z,52.20
2018-06-05T05:13:32.073Z,53.20
2018-06-05T05:14:32.085Z,53.20
2018-06-05T05:15:32.090Z,51.90
2018-06-05T05:16:32.101Z,52.70
2018-06-05T05:17:32.081Z,50.60
2018-06-05T05:18:32.103Z,51.00
2018-06-05T05:19:32.118Z,52.00
2018-06-05T05:20:32.103Z,51.10
2018-06-05T05:21:32.104Z,52.10
2018-06-05T05:22:32.116Z,51.40
2018-06-05T05:23:32.094Z,50.70
2018-06-05T05:24:32.108Z,50.80
2018-06-05T05:25:32.115Z,52.10
2018-06-05T05:26:32.331Z,50.60
2018-06-05T05:27:32.130Z,51.30
2018-06-05T05:28:32.122Z,50.50
2018-06-05T05:29:32.122Z,50.20
2018-06-05T05:30:32.108Z,51.40
2018-06-05T05:31:32.109Z,50.70
2018-06-05T05:32:32.123Z,50.10
2018-06-05T05:33:32.155Z,49.70
2018-06-05T05:34:32.118Z,50.10
2018-06-05T05:35:32.127Z,48.20
2018-06-05T05:36:32.128Z,50.00
2018-06-05T05:37:32.124Z,49.20
2018-06-05T05:38:32.125Z,49.80
2018-06-05T05:39:32.144Z,50.50
2018-06-05T05:40:32.334Z,51.00
2018-06-05T05:41:32.154Z,49.20
2018-06-05T05:42:32.137Z,48.40
2018-06-05T05:43:32.138Z,48.10
2018-06-05T05:44:32.345Z,48.00
2018-06-05T05:45:32.347Z,47.60
2018-06-05T05:46:32.146Z,48.30
2018-06-05T05:47:32.157Z,47.60
2018-06-05T05:48:32.152Z,47.90
2018-06-05T05:49:32.363Z,48.20
2018-06-05T05:50:32.164Z,48.10
2018-06-05T05:51:32.359Z,46.50
2018-06-05T05:52:32.377Z,47.30
2018-06-05T05:53:32.162Z,45.90
2018-06-05T05:54:32.378Z,46.60
2018-06-05T05:55:32.165Z,46.80
2018-06-05T05:56:32.170Z,46.20
2018-06-05T05:57:32.169Z,46.10
2018-06-05T05:58:32.372Z,45.30
2018-06-05T05:59:32.187Z,45.20
2018-06-05T06:00:32.412Z,46.40
2018-06-05T06:01:32.409Z,45.30
2018-06-05T06:02:32.180Z,44.20
2018-06-05T06:03:32.180Z,45.20
2018-06-05T06:04:32.185Z,45.60
2018-06-05T06:05:32.184Z,46.40
2018-06-05T06:06:32.193Z,45.70
2018-06-05T06:07:32.397Z,44.30
2018-06-05T06:08:32.202Z,46.00
2018-06-05T06:09:32.196Z,44.20
2018-06-05T06:10:32.208Z,44.30
2018-06-05T06:11:32.212Z,44.40
2018-06-05T06:12:32.216Z,45.00
2018-06-05T06:13:32.419Z,43.40
2018-06-05T06:14:32.425Z,44.40
2018-06-05T06:15:32.225Z,42.00
2018-06-05T06:16:32.223Z,42.10
2018-06-05T06:17:32.225Z,43.60
2018-06-05T06:18:32.214Z,41.40
2018-06-05T06:19:32.226Z,40.00
2018-06-05T06:20:32.420Z,42.00
2018-06-05T06:21:32.234Z,41.50
2018-06-05T06:22:32.234Z,41.10
2018-06-05T06:23:32.427Z,39.80
2018-06-05T06:24:32.228Z,40.10
2018-06-05T06:25:32.431Z,42.00
2018-06-05T06:26:32.231Z,40.80
2018-06-05T06:27:32.231Z,39.60
2018-06-05T06:28:32.246Z,39.90
2018-06-05T06:29:32.443Z,39.20
2018-06-05T06:30:32.241Z,38.80
2018-06-05T06:31:32.444Z,41.10
2018-06-05T06:32:32.450Z,39.30
2018-06-05T06:33:32.245Z,39.50
2018-06-05T06:34:32.259Z,39.10
2018-06-05T06:35:32.256Z,37.30
2018-06-05T06:36:32.253Z,37.60
2018-06-05T06:37:32.258Z,36.90
2018-06-05T06:38:32.261Z,37.40
2018-06-05T06:39:32.472Z,37.80
2018-06-05T06:40:32.475Z,37.70
2018-06-05T06:41:32.275Z,37.20
2018-06-05T06:42:32.280Z,35.50
2018-06-05T06:43:32.282Z,36.60
2018-06-05T06:44:32.286Z,36.90
2018-06-05T06:45:32.280Z,35.60
2018-06-05T06:46:32.277Z,34.20
2018-06-05T06:47:32.276Z,35.40
2018-06-05T06:48:32.300Z,35.20
2018-06-05T06:49:32.283Z,34.70
2018-06-05T06:50:32.296Z,35.60
2018-06-05T06:51:32.298Z,35.00
2018-06-05T06:52:32.502Z,35.20
2018-06-05T06:53:32.496Z,36.60
2018-06-05T06:54:32.547Z,37.00
2018-06-05T06:55:32.298Z,36.70
2018-06-05T06:56:32.299Z,37.50
2018-06-05T06:57:32.504Z,38.80
2018-06-05T06:58:32.319Z,36.50
2018-06-05T06:59:32.316Z,38.00
2018-06-05T07:00:32.512Z,38.50
2018-06-05T07:01:32.312Z,36.60
2018-06-05T07:02:32.313Z,34.90
2018-06-05T07:03:32.564Z,35.70
2018-06-05T07:04:32.520Z,36.10
2018-06-05T07:05:32.320Z,35.90
2018-06-05T07:06:32.332Z,35.40
2018-06-05T07:07:32.323Z,35.80
2018-06-05T07:08:32.333Z,35.10
2018-06-05T07:09:32.530Z,35.70
2018-06-05T07:10:32.333Z,36.50
2018-06-05T07:11:32.548Z,36.20
2018-06-05T07:12:32.344Z,34.90
2018-06-05T07:13:32.342Z,36.40
2018-06-05T07:14:32.339Z,35.50
2018-06-05T07:15:32.341Z,35.30
2018-06-05T07:16:32.346Z,34.80
2018-06-05T07:17:32.370Z,36.20
2018-06-05T07:18:32.347Z,36.00
2018-06-05T07:19:32.562Z,33.80
2018-06-05T07:20:32.359Z,34.70
2018-06-05T07:21:32.361Z,35.10
2018-06-05T07:22:32.354Z,38.70
2018-06-05T07:23:32.358Z,38.60
2018-06-05T07:24:32.364Z,37.00
2018-06-05T07:25:32.579Z,35.70
2018-06-05T07:26:32.577Z,35.00
2018-06-05T07:27:32.367Z,33.10
2018-06-05T07:28:32.394Z,33.30
2018-06-05T07:29:32.386Z,32.20
2018-06-05T07:30:32.377Z,33.10
2018-06-05T07:31:32.388Z,32.50
2018-06-05T07:32:32.591Z,31.40
2018-06-05T07:33:32.396Z,31.80
2018-06-05T07:34:32.392Z,30.80
2018-06-05T07:35:32.615Z,31.40
2018-06-05T07:36:32.405Z,30.60
2018-06-05T07:37:32.391Z,30.90
2018-06-05T07:38:32.389Z,30.70
2018-06-05T07:39:32.420Z,33.40
2018-06-05T07:40:32.397Z,35.90
2018-06-05T07:41:32.600Z,35.70
2018-06-05T07:42:32.618Z,33.10
2018-06-05T07:43:32.402Z,35.00
2018-06-05T07:44:32.608Z,34.90
2018-06-05T07:45:32.421Z,35.00
2018-06-05T07:46:32.635Z,36.60
2018-06-05T07:47:32.639Z,36.00
2018-06-05T07:48:32.642Z,36.10
2018-06-05T07:49:32.619Z,36.00
2018-06-05T07:50:32.419Z,35.80
2018-06-05T07:51:32.421Z,35.20
2018-06-05T07:52:32.428Z,35.70
2018-06-05T07:53:32.427Z,34.60
2018-06-05T07:54:32.428Z,32.20
2018-06-05T07:55:32.642Z,32.60
2018-06-05T07:56:32.635Z,31.80
2018-06-05T07:57:32.435Z,30.40
2018-06-05T07:58:32.442Z,30.50
2018-06-05T07:59:32.642Z,30.40
2018-06-05T08:00:32.644Z,29.70
2018-06-05T08:01:32.447Z,29.30
2018-06-05T08:02:32.458Z,33.30
2018-06-05T08:03:32.664Z,32.00
2018-06-05T08:04:32.656Z,32.80
2018-06-05T08:05:32.456Z,31.70
2018-06-05T08:06:32.460Z,31.30
2018-06-05T08:07:32.459Z,31.80
2018-06-05T08:08:32.483Z,34.20
2018-06-05T08:09:32.665Z,37.40
2018-06-05T08:10:32.680Z,37.80
2018-06-05T08:11:32.680Z,37.10
2018-06-05T08:12:32.687Z,38.30
2018-06-05T08:13:32.677Z,39.50
2018-06-05T08:14:32.478Z,40.50
2018-06-05T08:15:32.680Z,39.20
2018-06-05T08:16:32.483Z,40.30
2018-06-05T08:17:32.685Z,38.70
2018-06-05T08:18:32.487Z,40.00
2018-06-05T08:19:32.713Z,40.10
2018-06-05T08:20:32.511Z,40.60
2018-06-05T08:21:32.503Z,40.70
2018-06-05T08:22:32.511Z,40.70
2018-06-05T08:23:32.514Z,41.00
2018-06-05T08:24:32.730Z,41.60
2018-06-05T08:25:32.519Z,40.90
2018-06-05T08:26:32.718Z,41.30
2018-06-05T08:27:32.521Z,40.50
2018-06-05T08:28:32.710Z,38.90
2018-06-05T08:29:32.736Z,41.40
2018-06-05T08:30:32.514Z,44.00
2018-06-05T08:31:32.516Z,41.50
2018-06-05T08:32:32.528Z,41.50
2018-06-05T08:33:32.521Z,39.50
2018-06-05T08:34:32.724Z,42.30
2018-06-05T08:35:32.529Z,41.70
2018-06-05T08:36:32.530Z,43.00
2018-06-05T08:37:32.530Z,41.40
2018-06-05T08:38:32.530Z,39.50
2018-06-05T08:39:32.558Z,42.90
2018-06-05T08:40:32.759Z,41.40
2018-06-05T08:41:32.552Z,40.20
2018-06-05T08:42:32.568Z,37.80
2018-06-05T08:43:32.544Z,40.40
2018-06-05T08:44:32.558Z,37.80
2018-06-05T08:45:32.551Z,38.20
2018-06-05T08:46:32.562Z,37.80
2018-06-05T08:47:32.560Z,39.50
2018-06-05T08:48:32.765Z,39.50
2018-06-05T08:49:32.589Z,38.80
2018-06-05T08:50:32.592Z,38.60
2018-06-05T08:51:32.582Z,37.10
2018-06-05T08:52:32.575Z,36.60
2018-06-05T08:53:32.794Z,36.60
2018-06-05T08:54:32.766Z,36.80
2018-06-05T08:55:32.782Z,37.20
2018-06-05T08:56:32.784Z,36.50
2018-06-05T08:57:32.599Z,36.80
2018-06-05T08:58:32.572Z,35.30
2018-06-05T08:59:32.575Z,36.20
2018-06-05T09:00:32.782Z,37.30
2018-06-05T09:01:32.595Z,37.00
2018-06-05T09:02:32.599Z,37.00
2018-06-05T09:03:32.602Z,37.70
2018-06-05T09:04:32.603Z,36.70
2018-06-05T09:05:32.803Z,37.30
2018-06-05T09:06:32.590Z,35.50
2018-06-05T09:07:32.607Z,38.10
2018-06-05T09:08:32.624Z,39.50
2018-06-05T09:09:32.603Z,36.00
2018-06-05T09:10:32.805Z,35.00
2018-06-05T09:11:32.616Z,34.40
2018-06-05T09:12:32.809Z,34.30
2018-06-05T09:13:32.622Z,36.30
2018-06-05T09:14:32.620Z,34.80
2018-06-05T09:15:32.833Z,34.50
2018-06-05T09:16:32.626Z,34.30
2018-06-05T09:17:32.632Z,35.20
2018-06-05T09:18:32.821Z,35.50
2018-06-05T09:19:32.621Z,37.90
2018-06-05T09:20:32.654Z,37.50
2018-06-05T09:21:32.659Z,39.20
2018-06-05T09:22:32.840Z,37.50
2018-06-05T09:23:32.631Z,39.50
2018-06-05T09:24:32.644Z,40.60
2018-06-05T09:25:32.643Z,41.40
2018-06-05T09:26:32.639Z,42.00
2018-06-05T09:27:32.842Z,39.60
2018-06-05T09:28:32.645Z,40.30
2018-06-05T09:29:32.658Z,41.00
2018-06-05T09:30:32.649Z,41.80
2018-06-05T09:31:32.652Z,42.10
2018-06-05T09:32:32.655Z,42.70
2018-06-05T09:33:32.660Z,42.50
2018-06-05T09:34:32.673Z,41.50
2018-06-05T09:35:32.660Z,41.40
2018-06-05T09:36:32.693Z,39.60
2018-06-05T09:37:32.879Z,40.10
2018-06-05T09:38:32.695Z,39.00
2018-06-05T09:39:32.688Z,40.00
2018-06-05T09:40:32.684Z,38.00
2018-06-05T09:41:32.682Z,37.80
2018-06-05T09:42:32.679Z,38.90
2018-06-05T09:43:32.682Z,38.90
2018-06-05T09:44:32.685Z,40.50
2018-06-05T09:45:32.705Z,40.10
2018-06-05T09:46:32.894Z,38.40
2018-06-05T09:47:32.696Z,39.90
2018-06-05T09:48:32.697Z,40.70
2018-06-05T09:49:32.711Z,39.40
2018-06-05T09:50:32.715Z,40.50
2018-06-05T09:51:32.717Z,40.30
2018-06-05T09:52:32.723Z,39.90
2018-06-05T09:53:32.740Z,40.70
2018-06-05T09:54:32.717Z,40.40
2018-06-05T09:55:32.718Z,40.80
2018-06-05T09:56:32.742Z,40.60
2018-06-05T09:57:32.759Z,42.10
2018-06-05T09:58:32.845Z,40.20
2018-06-05T09:59:32.746Z,41.00
2018-06-05T10:00:32.741Z,41.30
2018-06-05T10:01:32.736Z,40.10
2018-06-05T10:02:32.764Z,39.60
2018-06-05T10:03:32.748Z,40.20
2018-06-05T10:04:32.770Z,41.10
2018-06-05T10:05:32.762Z,39.80
2018-06-05T10:06:32.761Z,40.40
2018-06-05T10:07:32.763Z,41.00
2018-06-05T10:08:32.784Z,40.10
2018-06-05T10:09:32.772Z,40.90
2018-06-05T10:10:32.967Z,39.10
2018-06-05T10:11:32.765Z,40.60
2018-06-05T10:12:32.786Z,40.40
2018-06-05T10:13:32.768Z,38.70
2018-06-05T10:14:32.769Z,39.20
2018-06-05T10:15:32.781Z,41.20
2018-06-05T10:16:32.776Z,40.20
2018-06-05T10:17:32.781Z,40.00
2018-06-05T10:18:32.790Z,40.00
2018-06-05T10:19:32.986Z,39.70
2018-06-05T10:20:32.789Z,38.80
2018-06-05T10:21:32.995Z,41.10
2018-06-05T10:22:32.793Z,39.80
2018-06-05T10:23:33.005Z,39.40
2018-06-05T10:24:32.800Z,40.60
2018-06-05T10:25:33.014Z,41.30
2018-06-05T10:26:32.804Z,41.70
2018-06-05T10:27:32.807Z,41.50
2018-06-05T10:28:32.825Z,42.20
2018-06-05T10:29:32.816Z,43.10
2018-06-05T10:30:33.018Z,43.20
2018-06-05T10:31:33.021Z,43.60
2018-06-05T10:32:32.822Z,43.40
2018-06-05T10:33:33.028Z,42.30
2018-06-05T10:34:32.826Z,43.20
2018-06-05T10:35:32.830Z,42.60
2018-06-05T10:36:33.044Z,43.30
2018-06-05T10:37:32.837Z,43.40
2018-06-05T10:38:32.851Z,42.20
2018-06-05T10:39:33.043Z,42.40
2018-06-05T10:40:32.843Z,42.30
2018-06-05T10:41:32.847Z,41.40
2018-06-05T10:42:32.849Z,40.20
2018-06-05T10:43:32.861Z,40.00
2018-06-05T10:44:32.865Z,40.10
2018-06-05T10:45:33.069Z,40.90
2018-06-05T10:46:33.058Z,39.60
2018-06-05T10:47:32.878Z,39.70
2018-06-05T10:48:32.877Z,38.40
2018-06-05T10:49:32.879Z,40.60
2018-06-05T10:50:33.071Z,41.10
2018-06-05T10:51:32.877Z,40.70
2018-06-05T10:52:32.877Z,40.70
2018-06-05T10:53:32.879Z,39.50
2018-06-05T10:54:32.881Z,41.00
2018-06-05T10:55:32.892Z,40.20
2018-06-05T10:56:32.900Z,40.20
2018-06-05T10:57:32.891Z,42.70
2018-06-05T10:58:32.889Z,40.30
2018-06-05T10:59:32.907Z,40.20
2018-06-05T11:00:32.908Z,39.50
2018-06-05T11:01:32.903Z,39.00
2018-06-05T11:02:33.120Z,38.20
2018-06-05T11:03:33.110Z,39.40
2018-06-05T11:04:32.919Z,40.00
2018-06-05T11:05:32.907Z,39.20
2018-06-05T11:06:32.910Z,40.40
2018-06-05T11:07:33.142Z,39.70
2018-06-05T11:08:33.122Z,39.80
2018-06-05T11:09:32.944Z,38.20
2018-06-05T11:10:32.949Z,39.40
2018-06-05T11:11:32.925Z,39.90
2018-06-05T11:12:32.956Z,38.50
2018-06-05T11:13:33.134Z,38.30
2018-06-05T11:14:32.964Z,39.30
2018-06-05T11:15:33.148Z,38.90
2018-06-05T11:16:32.942Z,39.30
2018-06-05T11:17:32.964Z,39.40
2018-06-05T11:18:32.958Z,40.20
2018-06-05T11:19:33.149Z,41.30
2018-06-05T11:20:32.977Z,40.40
2018-06-05T11:21:32.954Z,41.10
2018-06-05T11:22:32.967Z,41.00
2018-06-05T11:23:32.987Z,40.70
2018-06-05T11:24:32.972Z,41.20
2018-06-05T11:25:32.977Z,40.80
2018-06-05T11:26:32.979Z,39.30
2018-06-05T11:27:32.971Z,39.30
2018-06-05T11:28:32.972Z,39.20
2018-06-05T11:29:32.986Z,40.00
2018-06-05T11:30:32.977Z,37.30
2018-06-05T11:31:32.981Z,38.80
2018-06-05T11:32:33.189Z,39.00
2018-06-05T11:33:32.988Z,39.90
2018-06-05T11:34:32.987Z,38.30
2018-06-05T11:35:32.991Z,39.00
2018-06-05T11:36:33.013Z,40.10
2018-06-05T11:37:33.199Z,39.50
2018-06-05T11:38:33.002Z,38.30
2018-06-05T11:39:33.015Z,36.50
2018-06-05T11:40:33.022Z,38.30
2018-06-05T11:41:33.010Z,38.90
2018-06-05T11:42:33.024Z,41.80
2018-06-05T11:43:33.017Z,43.80
2018-06-05T11:44:33.224Z,43.10
2018-06-05T11:45:33.026Z,43.20
2018-06-05T11:46:33.034Z,42.00
2018-06-05T11:47:33.244Z,42.80
2018-06-05T11:48:33.031Z,42.90
2018-06-05T11:49:33.036Z,43.30
2018-06-05T11:50:33.035Z,42.20
2018-06-05T11:51:33.040Z,43.00
2018-06-05T11:52:33.246Z,42.80
2018-06-05T11:53:33.067Z,44.80
2018-06-05T11:54:33.253Z,42.80
2018-06-05T11:55:33.056Z,43.10
2018-06-05T11:56:33.259Z,42.20
2018-06-05T11:57:33.059Z,43.50
2018-06-05T11:58:33.061Z,41.80
2018-06-05T11:59:33.269Z,41.90
2018-06-05T12:00:33.070Z,41.70
2018-06-05T12:01:33.273Z,41.50
2018-06-05T12:02:33.078Z,43.00
2018-06-05T12:03:33.087Z,42.50
2018-06-05T12:04:33.080Z,43.90
2018-06-05T12:05:33.095Z,46.70
2018-06-05T12:06:33.299Z,43.80
2018-06-05T12:07:33.089Z,44.40
2018-06-05T12:08:33.094Z,45.60
2018-06-05T12:09:33.095Z,47.60
2018-06-05T12:10:33.097Z,48.20
2018-06-05T12:11:33.314Z,46.40
2018-06-05T12:12:33.106Z,50.90
2018-06-05T12:13:33.132Z,50.40
2018-06-05T12:14:33.110Z,51.30
2018-06-05T12:15:33.132Z,49.90
2018-06-05T12:16:33.141Z,49.20
2018-06-05T12:17:33.120Z,50.60
2018-06-05T12:18:33.127Z,50.20
2018-06-05T12:19:33.144Z,48.70
2018-06-05T12:20:33.144Z,50.20
2018-06-05T12:21:33.135Z,50.40
2018-06-05T12:22:33.141Z,48.00
2018-06-05T12:23:33.156Z,48.00
2018-06-05T12:24:33.156Z,49.60
2018-06-05T12:25:33.199Z,50.70
2018-06-05T12:26:33.357Z,52.10
2018-06-05T12:27:33.170Z,50.30
2018-06-05T12:28:33.170Z,50.90
2018-06-05T12:29:33.162Z,51.60
2018-06-05T12:30:33.381Z,50.70
2018-06-05T12:31:33.181Z,51.20
2018-06-05T12:32:33.174Z,49.10
2018-06-05T12:33:33.179Z,51.80
2018-06-05T12:34:33.190Z,51.20
2018-06-05T12:35:33.190Z,54.10
2018-06-05T12:36:33.194Z,53.10
2018-06-05T12:37:33.418Z,52.70
2018-06-05T12:38:33.196Z,49.60
2018-06-05T12:39:33.199Z,47.00
2018-06-05T12:40:33.203Z,46.20
2018-06-05T12:41:33.216Z,49.30
2018-06-05T12:42:33.228Z,50.40
2018-06-05T12:43:33.216Z,49.70
2018-06-05T12:44:33.218Z,50.10
2018-06-05T12:45:33.424Z,49.90
2018-06-05T12:46:33.236Z,47.80
2018-06-05T12:47:33.441Z,48.80
2018-06-05T12:48:33.236Z,47.70
2018-06-05T12:49:33.238Z,45.40
2018-06-05T12:50:33.449Z,48.00
2018-06-05T12:51:33.242Z,48.10
2018-06-05T12:52:33.255Z,48.50